Time;durP1;ratioP1;P1;durP2;ratioP2;P2;SDS_P1;SDS_P2;PMS_P1;PMS_P2;Temp;Humidity;BMP_temperature;BMP_pressure;BME280_temperature;BME280_humidity;BME280_pressure;Samples;Min_cycle;Max_cycle;Signal;HPM_P1;HPM_P2
2024/01/25 00:01:45;;;;;;;12.80;0.90;;;;;;;6.88;79.73;100088.89;108277;1267;22524;-77
2024/01/25 00:04:36;;;;;;;13.70;0.90;;;;;;;6.88;79.74;100089.94;108250;1267;24165;-76
2024/01/25 00:07:27;;;;;;;13.70;1.20;;;;;;;6.89;79.86;100089.45;108514;1265;22545;-77
2024/01/25 00:10:19;;;;;;;11.20;0.90;;;;;;;6.89;79.99;100089.51;108339;1258;24200;-79
2024/01/25 00:13:10;;;;;;;10.50;1.50;;;;;;;6.91;80.14;100095.62;108274;1265;25262;-76
2024/01/25 00:16:01;;;;;;;11.20;1.60;;;;;;;6.91;80.14;100097.34;108362;1264;24240;-76
2024/01/25 00:18:52;;;;;;;11.80;0.90;;;;;;;6.91;80.22;100105.45;108421;1264;24160;-78
2024/01/25 00:21:45;;;;;;;14.30;1.20;;;;;;;6.91;80.15;100100.77;108356;1265;22532;-77
2024/01/25 00:24:36;;;;;;;10.30;1.20;;;;;;;6.92;80.23;100100.95;108398;1260;25315;-76
2024/01/25 00:27:28;;;;;;;9.00;0.90;;;;;;;6.92;80.21;100112.21;107945;1263;24443;-77
2024/01/25 00:30:19;;;;;;;13.60;1.20;;;;;;;6.93;80.18;100111.70;108447;1268;23270;-77
2024/01/25 00:33:10;;;;;;;20.20;2.30;;;;;;;6.93;80.04;100106.48;108395;1267;24224;-78
2024/01/25 00:35:59;;;;;;;;;;;;;;;6.91;80.01;100114.61;108386;1264;23882;-80
2024/01/25 00:38:52;;;;;;;9.20;1.10;;;;;;;6.89;79.71;100115.95;108412;1267;25472;-79
2024/01/25 00:41:49;;;;;;;13.00;1.20;;;;;;;6.89;79.67;100118.05;111341;1264;22157;-77
2024/01/25 00:44:40;;;;;;;15.60;1.50;;;;;;;6.89;79.66;100128.11;111390;1264;22260;-77
2024/01/25 00:47:32;;;;;;;10.20;1.10;;;;;;;6.91;79.41;100124.33;111329;1267;23028;-77
2024/01/25 00:50:25;;;;;;;14.60;1.80;;;;;;;6.93;79.37;100132.77;111340;1267;22412;-79
2024/01/25 00:53:17;;;;;;;11.50;1.10;;;;;;;6.96;79.22;100131.50;111414;1261;22286;-77
2024/01/25 00:56:10;;;;;;;14.10;1.10;;;;;;;6.97;79.03;100133.48;111287;1261;23186;-78
2024/01/25 00:59:02;;;;;;;13.30;1.60;;;;;;;7.01;78.89;100129.77;111384;1267;22099;-77
2024/01/25 01:01:56;;;;;;;25.10;1.50;;;;;;;7.05;78.74;100133.59;111363;1267;22407;-78
2024/01/25 01:04:48;;;;;;;14.70;1.50;;;;;;;7.08;78.37;100134.96;111299;1267;23116;-79
2024/01/25 01:07:40;;;;;;;14.10;1.40;;;;;;;7.10;77.97;100138.11;109037;1267;22518;-78
2024/01/25 01:10:31;;;;;;;17.30;1.40;;;;;;;7.12;77.84;100143.67;109036;1263;22531;-77
2024/01/25 01:13:22;;;;;;;14.30;1.30;;;;;;;7.14;77.52;100140.96;108347;1265;23899;-77
2024/01/25 01:16:13;;;;;;;15.80;1.30;;;;;;;7.16;76.69;100145.10;108341;1267;23103;-77
2024/01/25 01:19:06;;;;;;;15.60;1.60;;;;;;;7.19;76.77;100143.64;108411;1265;24190;-77
2024/01/25 01:21:57;;;;;;;11.10;1.20;;;;;;;7.20;76.51;100141.45;111441;1258;22712;-79
2024/01/25 01:24:48;;;;;;;19.00;2.20;;;;;;;7.21;76.45;100145.06;111390;1268;22964;-76
2024/01/25 01:27:39;;;;;;;18.70;1.20;;;;;;;7.21;76.33;100143.00;111388;1264;23104;-81
2024/01/25 01:30:29;;;;;;;9.60;0.90;;;;;;;7.21;76.11;100144.96;111392;1256;22178;-80
2024/01/25 01:33:20;;;;;;;18.30;1.50;;;;;;;7.21;75.99;100145.06;111185;1262;23271;-78
2024/01/25 01:36:11;;;;;;;14.90;1.20;;;;;;;7.22;75.81;100152.61;111404;1265;22195;-78
2024/01/25 01:39:02;;;;;;;25.00;1.40;;;;;;;7.23;75.71;100155.92;111434;1256;22057;-79
2024/01/25 01:41:51;;;;;;;;;;;;;;;7.22;75.98;100159.18;111406;1266;22379;-79
2024/01/25 01:44:42;;;;;;;19.90;1.70;;;;;;;7.22;76.02;100162.71;111235;1268;22345;-78
2024/01/25 01:47:33;;;;;;;19.50;1.40;;;;;;;7.22;75.64;100161.44;111336;1268;22241;-77
2024/01/25 01:50:23;;;;;;;12.90;1.20;;;;;;;7.23;75.55;100157.75;111310;1263;22995;-79
2024/01/25 01:53:14;;;;;;;11.10;1.20;;;;;;;7.24;75.47;100155.30;111436;1260;22326;-76
2024/01/25 01:56:06;;;;;;;13.90;1.10;;;;;;;7.26;75.08;100157.33;111286;1267;23601;-78
2024/01/25 01:58:57;;;;;;;17.20;1.40;;;;;;;7.26;75.23;100162.45;111402;1268;22174;-78
2024/01/25 02:01:48;;;;;;;13.40;1.20;;;;;;;7.27;74.73;100164.73;111431;1268;23113;-78
2024/01/25 02:04:40;;;;;;;13.40;1.10;;;;;;;7.27;74.84;100157.20;111372;1267;22140;-79
2024/01/25 02:07:32;;;;;;;16.40;1.30;;;;;;;7.26;74.87;100165.92;111376;1265;22156;-78
2024/01/25 02:10:23;;;;;;;12.90;1.60;;;;;;;7.27;74.37;100161.95;111377;1265;22199;-77
2024/01/25 02:13:14;;;;;;;11.90;1.40;;;;;;;7.26;74.45;100162.68;111401;1267;22314;-77
2024/01/25 02:16:06;;;;;;;15.50;1.30;;;;;;;7.26;74.30;100156.83;111371;1265;23061;-78
2024/01/25 02:18:57;;;;;;;12.20;1.20;;;;;;;7.25;74.32;100161.86;111430;1267;22321;-77
2024/01/25 02:21:49;;;;;;;14.80;0.90;;;;;;;7.24;74.05;100155.96;111394;1264;22143;-77
2024/01/25 02:24:39;;;;;;;14.50;1.20;;;;;;;7.23;74.03;100158.31;111334;1267;22955;-77
2024/01/25 02:27:30;;;;;;;18.80;1.50;;;;;;;7.22;73.69;100158.27;111376;1257;22109;-80
2024/01/25 02:30:21;;;;;;;12.30;1.10;;;;;;;7.22;73.84;100155.59;111425;1265;22397;-77
2024/01/25 02:33:12;;;;;;;13.80;1.30;;;;;;;7.21;73.88;100155.13;111233;1259;22203;-79
2024/01/25 02:36:03;;;;;;;20.60;1.40;;;;;;;7.20;73.86;100150.64;111360;1264;22138;-78
2024/01/25 02:38:54;;;;;;;13.10;1.90;;;;;;;7.20;73.53;100150.33;111358;1265;22343;-77
2024/01/25 02:41:44;;;;;;;17.00;1.60;;;;;;;7.19;73.74;100150.95;111385;1265;22155;-78
2024/01/25 02:44:35;;;;;;;18.70;1.60;;;;;;;7.17;73.80;100155.05;111257;1265;22167;-81
2024/01/25 02:47:26;;;;;;;11.90;1.70;;;;;;;7.16;73.42;100156.05;111356;1261;22174;-77
2024/01/25 02:50:17;;;;;;;13.90;1.30;;;;;;;7.15;73.67;100142.75;111355;1257;22500;-80
2024/01/25 02:53:08;;;;;;;13.20;1.20;;;;;;;7.13;73.56;100148.24;111435;1260;22326;-81
2024/01/25 02:55:59;;;;;;;12.90;1.50;;;;;;;7.13;73.70;100147.69;109353;1267;22527;-77
2024/01/25 02:58:50;;;;;;;21.40;1.20;;;;;;;7.12;73.39;100139.39;108455;1267;25327;-78
2024/01/25 03:01:42;;;;;;;22.60;1.70;;;;;;;7.12;73.46;100137.47;108357;1267;22633;-78
2024/01/25 03:04:33;;;;;;;17.20;1.70;;;;;;;7.13;73.49;100151.35;108397;1265;22526;-77
2024/01/25 03:07:24;;;;;;;21.20;2.70;;;;;;;7.12;73.65;100153.27;108459;1267;25415;-79
2024/01/25 03:10:15;;;;;;;17.10;1.50;;;;;;;7.12;73.63;100157.64;108476;1267;22615;-78
2024/01/25 03:13:06;;;;;;;13.30;1.30;;;;;;;7.12;73.67;100156.63;108339;1268;22728;-79
2024/01/25 03:15:57;;;;;;;20.40;2.30;;;;;;;7.11;73.79;100154.35;108373;1254;23578;-77
2024/01/25 03:18:48;;;;;;;16.30;1.70;;;;;;;7.10;73.55;100158.10;108291;1265;25460;-79
2024/01/25 03:21:37;;;;;;;;;;;;;;;7.10;73.64;100158.65;108412;1260;23873;-77
2024/01/25 03:24:29;;;;;;;9.90;1.10;;;;;;;7.10;73.60;100164.45;108401;1267;25490;-77
2024/01/25 03:27:20;;;;;;;23.60;1.50;;;;;;;7.10;73.74;100161.83;111365;1265;22959;-79
2024/01/25 03:30:12;;;;;;;7.70;0.90;;;;;;;7.10;73.70;100164.60;111381;1268;22529;-80
2024/01/25 03:33:03;;;;;;;11.90;0.90;;;;;;;7.11;73.64;100164.98;111405;1265;22928;-77
2024/01/25 03:35:54;;;;;;;9.40;0.90;;;;;;;7.12;73.41;100168.20;111459;1267;22145;-76
2024/01/25 03:38:44;;;;;;;14.10;1.60;;;;;;;7.13;73.36;100167.98;111512;1265;22218;-79
2024/01/25 03:41:33;;;;;;;;;;;;;;;7.14;73.21;100172.70;111261;1265;22286;-77
2024/01/25 03:44:24;;;;;;;15.70;1.30;;;;;;;7.15;73.25;100162.45;111436;1260;22243;-76
2024/01/25 03:47:15;;;;;;;16.50;1.20;;;;;;;7.16;73.43;100164.78;111185;1261;22360;-76
2024/01/25 03:50:06;;;;;;;13.50;1.50;;;;;;;7.17;73.20;100168.55;111555;1266;22429;-79
2024/01/25 03:52:57;;;;;;;10.00;1.00;;;;;;;7.17;73.25;100164.08;111227;1269;22756;-80
2024/01/25 03:55:48;;;;;;;16.30;1.30;;;;;;;7.18;73.02;100160.73;111229;1269;22230;-77
2024/01/25 03:58:39;;;;;;;21.80;1.40;;;;;;;7.19;72.98;100152.60;111388;1268;22168;-78
2024/01/25 04:01:30;;;;;;;13.60;1.50;;;;;;;7.19;72.97;100154.80;111364;1265;22513;-76
2024/01/25 04:04:21;;;;;;;11.60;1.40;;;;;;;7.20;72.92;100154.07;111400;1264;22186;-77
2024/01/25 04:07:11;;;;;;;14.90;1.80;;;;;;;7.20;72.97;100152.77;111367;1265;22217;-79
2024/01/25 04:10:02;;;;;;;15.80;2.50;;;;;;;7.21;72.88;100150.92;111432;1267;22371;-76
2024/01/25 04:12:53;;;;;;;10.30;1.30;;;;;;;7.22;72.98;100150.59;111393;1265;22312;-77
2024/01/25 04:15:44;;;;;;;15.10;1.30;;;;;;;7.21;72.97;100149.32;111376;1268;22197;-75
2024/01/25 04:18:33;;;;;;;;;;;;;;;7.22;72.70;100141.45;111507;1267;22477;-78
2024/01/25 04:21:23;;;;;;;11.00;0.80;;;;;;;7.21;72.87;100136.18;111372;1265;22946;-77
2024/01/25 04:24:14;;;;;;;18.90;1.80;;;;;;;7.21;72.88;100143.80;111410;1267;22633;-82
2024/01/25 04:27:05;;;;;;;16.20;1.50;;;;;;;7.21;72.97;100138.23;111453;1265;22342;-77
2024/01/25 04:29:56;;;;;;;15.90;1.80;;;;;;;7.20;73.56;100137.41;111463;1265;22172;-77
2024/01/25 04:32:47;;;;;;;13.40;1.60;;;;;;;7.15;74.22;100145.69;111433;1257;22104;-77
2024/01/25 04:35:36;;;;;;;;;;;;;;;7.10;74.36;100144.48;111427;1267;22344;-78
2024/01/25 04:38:26;;;;;;;17.80;1.30;;;;;;;7.04;74.89;100144.48;111484;1261;22966;-80
2024/01/25 04:41:16;;;;;;;;;;;;;;;6.98;75.28;100141.40;111333;1260;22305;-77
2024/01/25 04:44:06;;;;;;;13.50;1.60;;;;;;;6.91;75.86;100144.31;111386;1261;22225;-80
2024/01/25 04:46:57;;;;;;;12.30;1.20;;;;;;;6.85;76.06;100138.36;111397;1265;22100;-77
2024/01/25 04:49:48;;;;;;;18.00;2.30;;;;;;;6.81;75.89;100133.04;111386;1267;22218;-76
2024/01/25 04:52:39;;;;;;;12.30;1.40;;;;;;;6.79;76.09;100142.71;111224;1269;22206;-77
2024/01/25 04:55:29;;;;;;;14.40;1.30;;;;;;;6.79;76.10;100138.66;109454;1266;22633;-77
2024/01/25 04:58:21;;;;;;;18.90;1.70;;;;;;;6.78;76.39;100146.06;108312;1259;22765;-77
2024/01/25 05:01:12;;;;;;;14.10;1.80;;;;;;;6.75;76.68;100148.34;108201;1267;22690;-77
2024/01/25 05:04:03;;;;;;;11.50;1.40;;;;;;;6.72;76.65;100150.20;108221;1265;22644;-78
2024/01/25 05:06:54;;;;;;;13.00;1.30;;;;;;;6.70;76.70;100151.61;109962;1267;22799;-77
2024/01/25 05:09:45;;;;;;;14.80;1.30;;;;;;;6.70;76.69;100150.28;108214;1268;22530;-77
2024/01/25 05:12:36;;;;;;;14.60;1.70;;;;;;;6.71;76.65;100149.92;108261;1264;22644;-77
2024/01/25 05:15:26;;;;;;;13.60;1.40;;;;;;;6.72;76.50;100143.46;108135;1267;25447;-77
2024/01/25 05:18:17;;;;;;;16.40;1.50;;;;;;;6.74;76.50;100153.13;108068;1268;25487;-77
2024/01/25 05:21:08;;;;;;;12.30;1.00;;;;;;;6.76;76.52;100146.08;108140;1264;23026;-78
2024/01/25 05:23:59;;;;;;;16.60;1.10;;;;;;;6.76;76.51;100147.81;108102;1257;22769;-77
2024/01/25 05:26:50;;;;;;;17.50;1.50;;;;;;;6.77;76.51;100149.67;108186;1263;22543;-77
2024/01/25 05:29:41;;;;;;;14.10;1.30;;;;;;;6.78;76.41;100152.42;108096;1261;26714;-77
2024/01/25 05:32:32;;;;;;;15.90;1.70;;;;;;;6.79;76.32;100150.47;108085;1257;24179;-76
2024/01/25 05:35:23;;;;;;;19.90;1.70;;;;;;;6.80;76.01;100155.25;108178;1267;22527;-76
2024/01/25 05:38:14;;;;;;;19.40;1.70;;;;;;;6.82;76.05;100149.23;108235;1264;22626;-76
2024/01/25 05:41:05;;;;;;;19.10;1.60;;;;;;;6.83;75.91;100150.23;108126;1268;22486;-83
2024/01/25 05:43:56;;;;;;;13.70;1.20;;;;;;;6.84;75.91;100162.00;108198;1268;22626;-77
2024/01/25 05:46:47;;;;;;;10.20;1.10;;;;;;;6.84;75.71;100164.07;108206;1261;24356;-76
2024/01/25 05:49:38;;;;;;;17.00;1.80;;;;;;;6.86;75.87;100165.44;108097;1268;22524;-77
2024/01/25 05:52:29;;;;;;;15.30;1.70;;;;;;;6.85;75.93;100166.23;108191;1267;22646;-79
2024/01/25 05:55:20;;;;;;;13.10;1.70;;;;;;;6.84;75.97;100163.17;108423;1262;24341;-77
2024/01/25 05:58:11;;;;;;;15.60;1.40;;;;;;;6.84;76.13;100167.33;108373;1267;22626;-77
2024/01/25 06:01:03;;;;;;;12.60;1.60;;;;;;;6.83;76.19;100172.86;108424;1262;22739;-77
2024/01/25 06:03:55;;;;;;;17.80;1.20;;;;;;;6.81;76.32;100173.52;108820;1267;23607;-77
2024/01/25 06:06:46;;;;;;;14.10;1.40;;;;;;;6.80;76.51;100170.80;108581;1261;25370;-77
2024/01/25 06:09:37;;;;;;;10.70;1.30;;;;;;;6.79;76.70;100184.33;108402;1265;22532;-80
2024/01/25 06:12:26;;;;;;;;;;;;;;;6.76;76.97;100188.48;108593;1260;24349;-77
2024/01/25 06:15:17;;;;;;;16.40;1.10;;;;;;;6.73;77.29;100200.41;108753;1265;23361;-80
2024/01/25 06:18:08;;;;;;;14.10;1.30;;;;;;;6.70;77.64;100197.41;108610;1268;25472;-76
2024/01/25 06:20:59;;;;;;;14.20;1.90;;;;;;;6.68;77.72;100196.85;108580;1254;23410;-77
2024/01/25 06:23:50;;;;;;;19.00;1.10;;;;;;;6.67;78.08;100195.48;108731;1267;25341;-77
2024/01/25 06:26:41;;;;;;;19.40;1.90;;;;;;;6.66;78.19;100190.21;108917;1267;24237;-77
2024/01/25 06:29:32;;;;;;;16.90;2.10;;;;;;;6.66;78.30;100187.77;108900;1267;22566;-77
2024/01/25 06:32:23;;;;;;;13.20;1.40;;;;;;;6.65;78.28;100198.71;108816;1266;25329;-78
2024/01/25 06:35:14;;;;;;;11.70;1.30;;;;;;;6.66;78.29;100202.83;108603;1261;22765;-76
2024/01/25 06:38:05;;;;;;;17.10;1.60;;;;;;;6.66;78.34;100205.91;108453;1268;24256;-79
2024/01/25 06:40:56;;;;;;;17.50;1.80;;;;;;;6.67;78.21;100200.56;108413;1268;26149;-76
2024/01/25 06:43:47;;;;;;;20.10;2.20;;;;;;;6.68;77.83;100201.32;108386;1269;24244;-76
2024/01/25 06:46:38;;;;;;;19.40;1.30;;;;;;;6.69;77.82;100200.08;108569;1268;22610;-76
2024/01/25 06:49:29;;;;;;;27.40;2.40;;;;;;;6.70;77.41;100204.88;108629;1260;25221;-76
2024/01/25 06:52:20;;;;;;;17.60;3.10;;;;;;;6.71;77.36;100201.73;108522;1266;22527;-76
2024/01/25 06:55:12;;;;;;;20.40;1.70;;;;;;;6.73;77.42;100202.64;108910;1243;22626;-76
2024/01/25 06:58:03;;;;;;;19.90;2.80;;;;;;;6.73;77.38;100205.16;108796;1267;23359;-76
2024/01/25 07:00:54;;;;;;;15.70;3.10;;;;;;;6.73;77.10;100209.12;108586;1265;24267;-76
2024/01/25 07:03:45;;;;;;;11.90;1.70;;;;;;;6.74;77.07;100209.34;108814;1267;22540;-76
2024/01/25 07:06:36;;;;;;;20.80;1.80;;;;;;;6.74;76.93;100199.56;108758;1263;22549;-76
2024/01/25 07:09:27;;;;;;;23.60;2.70;;;;;;;6.76;76.68;100203.70;108884;1267;22556;-76
2024/01/25 07:12:18;;;;;;;16.40;1.70;;;;;;;6.78;76.45;100207.01;108684;1267;22665;-76
2024/01/25 07:15:10;;;;;;;18.50;1.80;;;;;;;6.81;76.30;100213.19;108636;1268;22560;-76
2024/01/25 07:18:01;;;;;;;25.00;2.50;;;;;;;6.82;76.16;100223.69;108557;1261;22524;-75
2024/01/25 07:20:52;;;;;;;16.20;1.60;;;;;;;6.84;75.88;100225.58;108584;1267;23331;-75
2024/01/25 07:23:43;;;;;;;25.00;2.10;;;;;;;6.86;75.71;100231.05;108660;1257;23295;-77
2024/01/25 07:26:36;;;;;;;19.20;2.30;;;;;;;6.89;75.21;100236.64;108706;1267;22740;-76
2024/01/25 07:29:28;;;;;;;16.70;1.40;;;;;;;6.92;74.55;100248.50;108771;1261;23321;-76
2024/01/25 07:32:20;;;;;;;13.30;2.10;;;;;;;6.95;74.22;100247.69;108637;1267;23493;-76
2024/01/25 07:35:11;;;;;;;13.20;1.30;;;;;;;6.98;74.09;100254.61;108834;1261;22542;-76
2024/01/25 07:38:03;;;;;;;23.00;2.30;;;;;;;7.01;73.60;100251.98;108328;1253;22556;-76
2024/01/25 07:40:55;;;;;;;16.10;1.30;;;;;;;7.03;73.21;100261.02;108444;1268;25449;-77
2024/01/25 07:43:46;;;;;;;16.50;1.70;;;;;;;7.05;72.86;100269.05;108539;1268;24345;-76
2024/01/25 07:46:37;;;;;;;12.00;1.10;;;;;;;7.08;72.77;100271.94;108513;1269;24257;-76
2024/01/25 07:49:28;;;;;;;13.50;1.50;;;;;;;7.10;72.85;100265.98;108720;1268;22634;-75
2024/01/25 07:52:19;;;;;;;18.20;1.10;;;;;;;7.09;72.70;100270.13;108564;1265;25370;-76
2024/01/25 07:55:10;;;;;;;14.30;1.20;;;;;;;7.10;72.12;100280.57;108650;1267;22636;-76
2024/01/25 07:58:01;;;;;;;15.50;1.70;;;;;;;7.11;71.80;100282.11;108532;1257;24202;-76
2024/01/25 08:00:52;;;;;;;12.80;1.50;;;;;;;7.13;71.43;100296.23;108725;1260;24903;-76
2024/01/25 08:03:43;;;;;;;13.40;1.70;;;;;;;7.15;71.22;100296.65;108632;1267;22536;-75
2024/01/25 08:06:35;;;;;;;15.70;1.30;;;;;;;7.17;70.54;100300.55;108688;1267;24211;-76
2024/01/25 08:09:25;;;;;;;11.90;1.10;;;;;;;7.18;71.03;100308.09;108879;1267;25373;-75
2024/01/25 08:12:16;;;;;;;18.20;1.60;;;;;;;7.20;71.23;100313.44;108702;1261;24333;-76
2024/01/25 08:15:09;;;;;;;20.70;1.80;;;;;;;7.21;70.60;100309.67;108672;1261;26608;-75
2024/01/25 08:18:00;;;;;;;13.70;1.40;;;;;;;7.23;70.38;100321.25;109904;1268;24174;-75
2024/01/25 08:20:51;;;;;;;12.40;1.10;;;;;;;7.24;70.22;100321.05;108501;1261;22667;-76
2024/01/25 08:23:43;;;;;;;17.70;1.30;;;;;;;7.25;70.26;100331.02;108789;1267;22632;-76
2024/01/25 08:26:34;;;;;;;19.70;1.10;;;;;;;7.24;69.71;100311.82;108582;1261;22569;-76
2024/01/25 08:29:25;;;;;;;12.80;1.70;;;;;;;7.24;69.75;100316.45;108278;1267;22522;-76
2024/01/25 08:32:16;;;;;;;19.60;1.20;;;;;;;7.24;70.15;100328.02;108705;1267;24347;-76
2024/01/25 08:35:08;;;;;;;21.30;1.90;;;;;;;7.25;70.15;100327.28;108428;1267;22537;-77
2024/01/25 08:37:59;;;;;;;17.40;1.20;;;;;;;7.25;69.60;100331.23;108535;1269;22597;-76
2024/01/25 08:40:48;;;;;;;;;;;;;;;7.26;69.52;100334.91;108708;1269;22541;-76
2024/01/25 08:43:40;;;;;;;13.80;1.60;;;;;;;7.26;69.66;100325.71;108233;1268;120988;-76
2024/01/25 08:46:31;;;;;;;16.30;1.40;;;;;;;7.27;69.48;100332.45;108547;1257;22553;-76
2024/01/25 08:49:22;;;;;;;16.90;1.10;;;;;;;7.27;69.56;100334.17;108471;1264;22650;-76
2024/01/25 08:52:13;;;;;;;17.30;1.40;;;;;;;7.27;69.74;100331.64;108549;1264;22569;-76
2024/01/25 08:55:05;;;;;;;21.10;2.80;;;;;;;7.28;69.73;100337.54;108213;1267;22518;-76
2024/01/25 08:57:56;;;;;;;15.00;1.70;;;;;;;7.29;68.94;100336.00;108417;1261;22527;-76
2024/01/25 09:00:46;;;;;;;18.70;1.80;;;;;;;7.31;69.66;100345.55;108516;1268;22674;-76
2024/01/25 09:03:37;;;;;;;15.10;1.10;;;;;;;7.33;69.07;100349.35;108555;1268;22547;-76
2024/01/25 09:06:28;;;;;;;16.10;1.70;;;;;;;7.34;69.22;100348.66;108674;1257;22700;-76
2024/01/25 09:09:20;;;;;;;14.60;1.50;;;;;;;7.38;69.53;100362.13;109042;1267;22949;-75
2024/01/25 09:12:11;;;;;;;19.20;1.50;;;;;;;7.40;68.97;100371.47;108855;1264;24177;-76
2024/01/25 09:15:03;;;;;;;15.30;1.50;;;;;;;7.41;68.66;100366.14;108775;1258;22547;-76
2024/01/25 09:17:54;;;;;;;12.90;1.00;;;;;;;7.41;68.54;100373.51;108661;1261;22546;-76
2024/01/25 09:20:48;;;;;;;11.80;1.40;;;;;;;7.42;68.65;100379.09;108688;1260;22770;-76
2024/01/25 09:23:38;;;;;;;13.50;1.80;;;;;;;7.43;68.38;100381.20;108652;1261;24328;-76
2024/01/25 09:26:29;;;;;;;17.00;1.20;;;;;;;7.45;68.26;100393.85;108546;1258;22539;-78
2024/01/25 09:29:21;;;;;;;13.60;1.30;;;;;;;7.46;68.12;100387.52;108546;1260;25256;-77
2024/01/25 09:32:12;;;;;;;13.60;1.10;;;;;;;7.48;67.99;100388.38;108863;1268;24623;-75
2024/01/25 09:35:03;;;;;;;17.70;1.50;;;;;;;7.50;67.68;100393.70;108366;1268;25326;-73
2024/01/25 09:37:54;;;;;;;17.00;1.90;;;;;;;7.51;67.33;100393.80;108693;1261;22614;-77
2024/01/25 09:40:46;;;;;;;19.20;2.20;;;;;;;7.53;66.95;100402.80;108581;1260;23029;-76
2024/01/25 09:43:38;;;;;;;14.40;1.40;;;;;;;7.53;66.85;100389.41;108669;1260;25256;-76
2024/01/25 09:46:29;;;;;;;14.90;1.20;;;;;;;7.53;67.46;100400.27;108733;1260;22546;-76
2024/01/25 09:49:20;;;;;;;10.90;1.80;;;;;;;7.55;67.02;100410.44;108576;1260;22617;-76
2024/01/25 09:52:15;;;;;;;13.40;1.30;;;;;;;7.56;66.94;100406.59;108756;1267;22525;-78
2024/01/25 09:55:08;;;;;;;11.70;1.10;;;;;;;7.56;66.77;100403.40;110018;1266;22658;-76
2024/01/25 09:58:00;;;;;;;16.10;2.20;;;;;;;7.57;67.24;100411.06;108667;1260;25047;-76
2024/01/25 10:00:51;;;;;;;18.60;1.40;;;;;;;7.57;67.22;100415.45;108559;1262;22774;-76
2024/01/25 10:03:45;;;;;;;19.10;1.50;;;;;;;7.57;67.21;100422.83;108656;1260;22524;-76
2024/01/25 10:06:36;;;;;;;14.00;1.80;;;;;;;7.56;66.79;100430.86;108697;1267;22687;-76
2024/01/25 10:09:27;;;;;;;12.00;0.90;;;;;;;7.56;67.56;100431.84;108720;1260;22595;-77
2024/01/25 10:12:18;;;;;;;10.30;1.10;;;;;;;7.54;66.98;100440.29;108653;1259;22619;-76
2024/01/25 10:15:11;;;;;;;15.10;1.10;;;;;;;7.52;67.46;100433.31;108681;1260;22542;-77
2024/01/25 10:18:02;;;;;;;19.90;1.70;;;;;;;7.52;67.07;100447.06;108456;1261;22652;-77
2024/01/25 10:20:53;;;;;;;19.50;2.20;;;;;;;7.51;67.32;100444.80;108712;1261;24229;-77
2024/01/25 10:23:47;;;;;;;18.60;1.20;;;;;;;7.51;67.50;100442.16;108682;1264;25473;-78
2024/01/25 10:26:38;;;;;;;16.80;1.40;;;;;;;7.50;66.81;100459.88;108680;1257;24174;-77
2024/01/25 10:29:29;;;;;;;14.20;1.30;;;;;;;7.49;67.06;100451.27;108674;1244;22615;-77
2024/01/25 10:32:20;;;;;;;15.70;1.80;;;;;;;7.48;66.69;100452.49;108734;1260;22602;-76
2024/01/25 10:35:13;;;;;;;16.10;1.70;;;;;;;7.48;66.76;100453.23;108462;1257;24217;-77
2024/01/25 10:38:05;;;;;;;13.40;0.90;;;;;;;7.48;66.73;100454.10;108752;1264;24535;-78
2024/01/25 10:40:57;;;;;;;14.70;1.20;;;;;;;7.49;66.85;100452.97;109036;1268;22639;-77
2024/01/25 10:43:49;;;;;;;9.70;1.20;;;;;;;7.50;66.60;100459.35;108771;1264;22998;-78
2024/01/25 10:46:42;;;;;;;17.10;1.40;;;;;;;7.50;66.61;100458.52;108974;1267;22833;-77
2024/01/25 10:49:34;;;;;;;18.00;1.20;;;;;;;7.51;66.48;100459.21;108928;1260;24602;-78
2024/01/25 10:52:26;;;;;;;14.60;1.50;;;;;;;7.52;66.46;100454.67;108815;1263;22534;-77
2024/01/25 10:55:18;;;;;;;15.40;0.90;;;;;;;7.52;66.36;100448.08;109061;1260;22974;-76
2024/01/25 10:58:13;;;;;;;13.00;1.10;;;;;;;7.52;65.77;100452.45;108685;1264;22629;-76
2024/01/25 11:01:10;;;;;;;14.70;1.80;;;;;;;7.52;66.21;100455.70;108394;1260;25207;-77
2024/01/25 11:04:01;;;;;;;10.80;1.20;;;;;;;7.52;66.35;100449.19;108936;1259;22642;-77
2024/01/25 11:06:53;;;;;;;12.80;1.40;;;;;;;7.53;65.96;100449.80;108604;1260;23128;-77
2024/01/25 11:09:48;;;;;;;24.50;1.60;;;;;;;7.53;66.25;100456.39;108923;1261;24192;-76
2024/01/25 11:12:51;;;;;;;12.60;1.70;;;;;;;7.52;65.10;100456.40;108862;1264;24368;-77
2024/01/25 11:15:42;;;;;;;13.40;1.10;;;;;;;7.53;65.47;100455.73;108659;1261;23342;-77
2024/01/25 11:18:33;;;;;;;14.90;1.40;;;;;;;7.55;65.34;100469.80;108871;1264;24228;-77
2024/01/25 11:21:39;;;;;;;16.30;1.20;;;;;;;7.56;64.98;100460.41;109054;1261;25397;-78
2024/01/25 11:24:30;;;;;;;16.40;2.50;;;;;;;7.55;64.72;100456.88;108960;1267;22561;-77
2024/01/25 11:27:21;;;;;;;16.50;1.40;;;;;;;7.54;65.39;100458.15;108937;1257;25268;-77
2024/01/25 11:30:14;;;;;;;20.10;1.30;;;;;;;7.56;65.71;100461.59;109096;1263;22612;-78
2024/01/25 11:33:07;;;;;;;13.80;1.30;;;;;;;7.57;65.74;100462.96;108843;1267;22666;-77
2024/01/25 11:35:58;;;;;;;14.60;1.00;;;;;;;7.58;65.37;100476.34;108914;1261;22603;-77
2024/01/25 11:38:49;;;;;;;8.40;1.10;;;;;;;7.58;65.82;100474.85;109310;1265;22721;-79
2024/01/25 11:41:41;;;;;;;11.30;1.20;;;;;;;7.57;65.80;100472.10;108973;1261;25303;-77
2024/01/25 11:44:32;;;;;;;11.90;1.00;;;;;;;7.57;66.13;100479.89;108966;1261;22548;-78
2024/01/25 11:47:23;;;;;;;13.90;0.90;;;;;;;7.56;66.30;100486.52;108552;1261;22646;-77
2024/01/25 11:50:15;;;;;;;11.70;1.00;;;;;;;7.55;66.48;100485.20;108674;1260;22577;-77
2024/01/25 11:53:06;;;;;;;15.30;1.20;;;;;;;7.55;66.47;100491.96;108596;1256;24337;-78
2024/01/25 11:55:58;;;;;;;13.00;1.40;;;;;;;7.53;66.59;100497.16;108583;1267;25310;-77
2024/01/25 11:58:50;;;;;;;12.20;1.20;;;;;;;7.52;66.87;100495.06;108536;1269;22551;-77
2024/01/25 12:01:41;;;;;;;15.50;1.60;;;;;;;7.53;66.41;100496.70;108672;1268;22517;-77
2024/01/25 12:04:32;;;;;;;15.90;1.10;;;;;;;7.53;66.39;100492.07;108613;1267;23074;-77
2024/01/25 12:07:23;;;;;;;11.00;1.00;;;;;;;7.54;66.34;100490.55;108891;1264;25422;-77
2024/01/25 12:10:18;;;;;;;18.80;1.50;;;;;;;7.53;66.70;100492.10;108700;1260;22670;-78
2024/01/25 12:13:11;;;;;;;15.90;1.80;;;;;;;7.53;66.38;100486.20;108702;1267;23080;-77
2024/01/25 12:16:03;;;;;;;15.70;1.80;;;;;;;7.55;66.36;100491.87;108296;1267;25473;-77
2024/01/25 12:18:54;;;;;;;9.50;1.30;;;;;;;7.57;66.56;100481.64;108826;1265;25459;-77
2024/01/25 12:21:47;;;;;;;12.50;1.20;;;;;;;7.60;66.32;100482.33;108619;1259;23138;-77
2024/01/25 12:24:38;;;;;;;19.20;1.20;;;;;;;7.61;65.89;100478.23;108643;1265;23492;-77
2024/01/25 12:27:32;;;;;;;20.90;1.70;;;;;;;7.64;65.37;100475.17;108712;1267;22598;-77
2024/01/25 12:30:23;;;;;;;15.30;1.40;;;;;;;7.68;65.31;100474.39;108648;1264;22683;-77
2024/01/25 12:33:15;;;;;;;11.10;1.10;;;;;;;7.71;65.01;100470.05;108474;1263;22969;-78
2024/01/25 12:36:07;;;;;;;13.40;1.10;;;;;;;7.74;65.28;100485.91;108580;1260;22527;-76
2024/01/25 12:38:58;;;;;;;12.70;1.50;;;;;;;7.78;65.08;100488.47;108624;1263;23892;-77
2024/01/25 12:41:49;;;;;;;18.50;1.30;;;;;;;7.81;64.73;100494.61;108535;1268;22564;-76
2024/01/25 12:44:40;;;;;;;16.00;1.40;;;;;;;7.82;64.30;100496.86;108647;1267;22543;-77
2024/01/25 12:47:31;;;;;;;10.50;1.00;;;;;;;7.83;63.93;100503.99;108749;1259;23706;-77
2024/01/25 12:50:22;;;;;;;13.10;1.30;;;;;;;7.83;64.14;100502.40;108461;1260;22530;-77
2024/01/25 12:53:14;;;;;;;16.60;1.80;;;;;;;7.84;63.46;100507.98;108499;1257;24188;-77
2024/01/25 12:56:05;;;;;;;12.40;1.10;;;;;;;7.86;63.39;100498.70;108893;1260;22944;-78
2024/01/25 12:58:56;;;;;;;15.90;1.80;;;;;;;7.88;63.10;100507.21;108644;1258;24623;-77
2024/01/25 13:01:47;;;;;;;14.40;1.50;;;;;;;7.91;63.06;100516.10;108654;1268;22517;-77
2024/01/25 13:04:38;;;;;;;13.50;1.30;;;;;;;7.91;62.95;100502.33;108743;1267;22532;-78
2024/01/25 13:07:29;;;;;;;12.40;1.10;;;;;;;7.92;62.31;100508.42;108846;1267;22590;-77
2024/01/25 13:10:20;;;;;;;11.40;1.00;;;;;;;7.92;62.34;100510.58;108842;1261;22554;-77